Time;durP1;ratioP1;P1;durP2;ratioP2;P2;SDS_P1;SDS_P2;PMS_P1;PMS_P2;Temp;Humidity;BMP_temperature;BMP_pressure;BME280_temperature;BME280_humidity;BME280_pressure;Samples;Min_cycle;Max_cycle;Signal;HPM_P1;HPM_P2
2023/07/05 00:00:29;;;;;;;8.50;5.13;;;;;;;23.11;100.00;101210.31;2081039;28;20196;-68
2023/07/05 00:01:30;;;;;;;6.70;5.00;;;;;;;23.10;100.00;101202.31;2080424;28;20238;-68
2023/07/05 00:02:30;;;;;;;8.13;5.20;;;;;;;23.08;100.00;101200.00;2079352;28;20720;-68
2023/07/05 00:03:31;;;;;;;8.27;5.00;;;;;;;23.06;100.00;101201.78;2080462;28;20179;-68
2023/07/05 00:04:31;;;;;;;7.87;5.47;;;;;;;23.01;100.00;101196.84;2080674;28;20174;-68
2023/07/05 00:05:35;;;;;;;7.27;5.10;;;;;;;22.38;100.00;101099.31;2080415;28;20180;-68
2023/07/05 00:06:36;;;;;;;7.70;5.00;;;;;;;22.40;100.00;101117.31;2081089;28;20562;-68
2023/07/05 00:07:37;;;;;;;9.00;4.90;;;;;;;22.94;100.00;101208.66;2081113;28;20274;-68
2023/07/05 00:08:37;;;;;;;6.47;5.00;;;;;;;22.94;100.00;101217.91;2080934;28;20642;-68
2023/07/05 00:09:38;;;;;;;6.77;5.20;;;;;;;22.97;100.00;101216.13;2081010;28;20188;-68
2023/07/05 00:10:38;;;;;;;9.53;4.87;;;;;;;22.98;100.00;101218.44;2080212;28;20279;-68
2023/07/05 00:11:38;;;;;;;5.63;4.90;;;;;;;22.93;100.00;101213.50;2080370;28;20177;-68
2023/07/05 00:12:39;;;;;;;6.57;5.23;;;;;;;22.94;100.00;101219.94;2072895;28;20178;-68
2023/07/05 00:13:40;;;;;;;5.77;5.10;;;;;;;22.91;100.00;101213.25;2080989;28;20197;-68
2023/07/05 00:14:40;;;;;;;7.53;5.13;;;;;;;22.82;100.00;101216.25;2079822;28;20707;-68
2023/07/05 00:15:46;;;;;;;7.37;4.60;;;;;;;22.34;100.00;101141.13;2081145;28;20201;-68
2023/07/05 00:16:47;;;;;;;9.00;5.10;;;;;;;22.87;100.00;101217.59;2080626;28;20181;-68
2023/07/05 00:17:48;;;;;;;8.07;5.10;;;;;;;22.41;100.00;101138.63;2081029;28;20239;-68
2023/07/05 00:18:48;;;;;;;5.27;4.77;;;;;;;22.95;100.00;101224.31;2080915;28;20189;-68
2023/07/05 00:19:53;;;;;;;7.80;4.93;;;;;;;22.94;100.00;101220.75;2080675;28;20177;-68
2023/07/05 00:20:58;;;;;;;8.37;4.70;;;;;;;22.95;100.00;101224.31;2080740;28;20204;-68
2023/07/05 00:21:58;;;;;;;5.70;5.10;;;;;;;22.94;100.00;101225.59;2080808;28;20292;-68
2023/07/05 00:22:59;;;;;;;6.53;4.93;;;;;;;22.95;100.00;101227.16;2081188;28;20181;-68
2023/07/05 00:23:59;;;;;;;5.87;4.73;;;;;;;22.98;100.00;101234.63;2080966;28;20193;-68
2023/07/05 00:25:01;;;;;;;6.43;5.70;;;;;;;22.95;100.00;101230.75;2079978;28;20192;-68
2023/07/05 00:26:03;;;;;;;8.50;5.30;;;;;;;22.91;100.00;101226.59;2080873;28;20185;-68
2023/07/05 00:27:04;;;;;;;7.53;5.20;;;;;;;22.93;100.00;101229.72;2080838;28;20203;-68
2023/07/05 00:28:04;;;;;;;6.17;4.80;;;;;;;22.86;100.00;101218.84;2080861;28;20200;-68
2023/07/05 00:29:05;;;;;;;6.00;5.40;;;;;;;22.64;100.00;101179.13;2080805;28;20242;-68
2023/07/05 00:30:06;;;;;;;6.83;5.20;;;;;;;23.02;100.00;101226.69;2080008;28;20213;-68
2023/07/05 00:31:06;;;;;;;5.60;4.93;;;;;;;23.02;100.00;101226.69;2079131;28;20197;-68
2023/07/05 00:32:07;;;;;;;7.23;5.30;;;;;;;23.04;100.00;101229.78;2080931;28;20180;-68
2023/07/05 00:33:07;;;;;;;6.27;5.20;;;;;;;23.04;100.00;101224.91;2080890;28;20568;-68
2023/07/05 00:34:08;;;;;;;5.83;5.23;;;;;;;23.06;100.00;101230.81;2080814;28;20224;-69
2023/07/05 00:35:08;;;;;;;7.30;5.00;;;;;;;23.04;100.00;101232.59;2079716;28;20211;-69
2023/07/05 00:36:09;;;;;;;6.20;5.20;;;;;;;22.92;100.00;101217.63;2080838;28;20185;-69
2023/07/05 00:37:09;;;;;;;7.60;5.00;;;;;;;23.06;100.00;101230.03;2080826;28;20579;-68
2023/07/05 00:38:10;;;;;;;8.30;5.50;;;;;;;23.06;100.00;101239.31;2080700;28;20580;-68
2023/07/05 00:39:10;;;;;;;5.63;5.03;;;;;;;23.02;100.00;101249.31;2080761;28;20571;-68
2023/07/05 00:40:11;;;;;;;8.57;5.47;;;;;;;22.97;100.00;101250.81;2080956;28;20640;-68
2023/07/05 00:41:11;;;;;;;7.47;5.07;;;;;;;23.00;100.00;101240.53;2080774;28;20270;-68
2023/07/05 00:42:12;;;;;;;9.03;5.80;;;;;;;23.01;100.00;101242.09;2080604;28;20192;-68
2023/07/05 00:43:14;;;;;;;8.57;5.53;;;;;;;23.01;100.00;101231.56;2080939;28;20638;-68
2023/07/05 00:44:14;;;;;;;7.53;5.20;;;;;;;22.99;100.00;101236.19;2080296;28;20623;-68
2023/07/05 00:45:14;;;;;;;8.03;5.37;;;;;;;23.01;100.00;101231.56;2079645;28;20533;-68
2023/07/05 00:46:31;;;;;;;6.67;5.60;;;;;;;22.80;100.00;101201.88;2080752;28;20200;-68
2023/07/05 00:47:34;;;;;;;5.47;4.63;;;;;;;22.94;100.00;101215.09;2080834;28;20193;-68
2023/07/05 00:48:37;;;;;;;6.47;5.10;;;;;;;23.13;100.00;101223.94;2077911;28;20181;-68
2023/07/05 00:49:37;;;;;;;6.80;5.13;;;;;;;23.13;100.00;101223.94;2074478;28;20227;-68
2023/07/05 00:50:41;;;;;;;7.73;5.30;;;;;;;23.18;100.00;101229.66;2079879;28;20654;-68
2023/07/05 00:51:47;;;;;;;6.43;5.40;;;;;;;23.25;100.00;101229.19;2072689;28;20205;-68
2023/07/05 00:52:48;;;;;;;8.43;5.93;;;;;;;23.22;100.00;101220.91;2080881;28;20169;-68
2023/07/05 00:53:49;;;;;;;6.77;5.07;;;;;;;23.01;100.00;101188.38;2072732;28;20181;-68
2023/07/05 00:54:54;;;;;;;7.17;5.13;;;;;;;23.27;100.00;101229.44;2077912;28;20200;-68
2023/07/05 00:56:24;;;;;;;7.90;5.60;;;;;;;23.29;100.00;101228.94;2074475;28;20191;-68
2023/07/05 00:57:30;;;;;;;6.73;4.90;;;;;;;23.35;100.00;101224.09;2072352;28;20208;-68
2023/07/05 00:58:31;;;;;;;6.90;5.40;;;;;;;23.41;100.00;101233.38;2072799;28;20177;-68
2023/07/05 00:59:46;;;;;;;6.60;5.33;;;;;;;23.42;100.00;101224.38;2079470;28;20196;-68
2023/07/05 01:00:48;;;;;;;6.80;5.47;;;;;;;23.22;100.00;101198.28;2078412;28;20169;-68
2023/07/05 01:01:49;;;;;;;6.40;5.17;;;;;;;22.93;100.00;101153.41;2072482;28;20209;-68
2023/07/05 01:02:54;;;;;;;5.23;4.73;;;;;;;23.48;100.00;101224.41;2079027;28;20196;-68
2023/07/05 01:03:59;;;;;;;6.97;5.30;;;;;;;22.83;100.00;101120.97;2080727;28;20189;-68
2023/07/05 01:05:00;;;;;;;6.30;5.23;;;;;;;23.46;100.00;101215.66;2079744;28;20209;-68
2023/07/05 01:06:02;;;;;;;9.40;5.77;;;;;;;23.45;100.00;101223.38;2080730;28;20189;-68
2023/07/05 01:07:03;;;;;;;15.73;6.33;;;;;;;23.44;100.00;101219.00;2080673;28;20260;-68
2023/07/05 01:08:05;;;;;;;15.17;6.57;;;;;;;23.43;100.00;101220.28;2080690;28;20184;-68
2023/07/05 01:09:06;;;;;;;13.10;7.20;;;;;;;23.41;100.00;101228.50;2080555;28;20181;-68
2023/07/05 01:10:16;;;;;;;21.00;6.70;;;;;;;23.42;100.00;101227.22;2080605;28;20183;-68
2023/07/05 01:11:38;;;;;;;13.60;6.80;;;;;;;23.45;100.00;101222.59;2080680;28;20240;-68
2023/07/05 01:12:38;;;;;;;14.30;6.73;;;;;;;23.49;100.00;101223.13;2080522;28;20172;-68
2023/07/05 01:13:46;;;;;;;16.73;6.63;;;;;;;23.49;100.00;101221.06;2080263;28;20204;-68
2023/07/05 01:15:01;;;;;;;14.83;6.50;;;;;;;23.53;100.00;101226.47;2076463;28;20524;-68
2023/07/05 01:16:16;;;;;;;9.53;5.67;;;;;;;23.29;100.00;101187.28;2080624;28;20173;-68
2023/07/05 01:18:03;;;;;;;7.17;5.27;;;;;;;23.58;100.00;101220.84;2080557;28;20272;-68
2023/07/05 01:19:41;;;;;;;7.63;5.47;;;;;;;23.57;100.00;101224.19;2071471;28;20717;-68
2023/07/05 01:20:51;;;;;;;7.33;5.27;;;;;;;23.56;100.00;101231.13;2047099;29;20245;-68
2023/07/05 01:22:36;;;;;;;8.87;5.40;;;;;;;23.54;100.00;101225.22;2051490;28;20684;-68
2023/07/05 01:23:39;;;;;;;9.63;5.60;;;;;;;23.56;100.00;101225.47;2071209;28;20201;-68
2023/07/05 01:24:54;;;;;;;8.87;5.47;;;;;;;23.56;100.00;101223.44;2070834;28;20190;-68
2023/07/05 01:26:31;;;;;;;8.37;5.47;;;;;;;23.52;100.00;101219.28;2080721;28;20203;-68
2023/07/05 01:27:54;;;;;;;6.37;5.20;;;;;;;23.54;100.00;101219.56;2080670;28;20227;-68
2023/07/05 01:29:34;;;;;;;6.73;5.20;;;;;;;23.52;100.00;101230.59;2080597;28;20271;-68
2023/07/05 01:30:58;;;;;;;8.60;5.13;;;;;;;23.54;100.00;101219.56;2072633;28;20562;-68
2023/07/05 01:32:19;;;;;;;11.30;5.37;;;;;;;23.54;100.00;101217.50;2073745;28;20223;-68
2023/07/05 01:33:32;;;;;;;9.17;5.93;;;;;;;23.56;100.00;101217.78;2079894;28;20185;-68
2023/07/05 01:34:46;;;;;;;8.57;5.43;;;;;;;23.54;100.00;101219.56;2077907;28;20200;-68
2023/07/05 01:35:52;;;;;;;6.83;5.50;;;;;;;23.49;100.00;101214.66;2076099;28;20203;-68
2023/07/05 01:36:53;;;;;;;6.93;5.30;;;;;;;23.51;100.00;101209.25;2079987;28;20196;-68
2023/07/05 01:37:53;;;;;;;8.63;5.83;;;;;;;23.13;100.00;101145.53;2080501;28;20287;-68
2023/07/05 01:38:53;;;;;;;9.43;5.10;;;;;;;23.55;100.00;101206.97;2080293;28;20184;-68
2023/07/05 01:39:54;;;;;;;8.77;5.90;;;;;;;23.54;100.00;101206.19;2080450;28;20235;-68
2023/07/05 01:40:59;;;;;;;7.33;5.40;;;;;;;23.44;100.00;101192.78;2073562;28;20663;-68
2023/07/05 01:42:01;;;;;;;9.10;5.50;;;;;;;23.61;100.00;101208.53;2072625;28;20269;-68
2023/07/05 01:43:06;;;;;;;6.47;5.27;;;;;;;23.22;100.00;101145.34;2079338;28;20274;-68
2023/07/05 01:44:08;;;;;;;7.27;5.80;;;;;;;23.62;100.00;101204.41;2080350;28;20241;-68
2023/07/05 01:45:09;;;;;;;7.27;5.17;;;;;;;22.93;100.00;101103.28;2079380;28;20219;-68
2023/07/05 01:46:29;;;;;;;9.13;5.63;;;;;;;23.31;100.00;101156.47;2079705;28;20222;-68
2023/07/05 01:47:38;;;;;;;10.43;5.57;;;;;;;23.62;100.00;101210.06;2077660;28;20197;-68
2023/07/05 01:48:56;;;;;;;10.17;5.50;;;;;;;23.62;100.00;101209.28;2078532;28;20185;-68
2023/07/05 01:50:25;;;;;;;9.17;5.77;;;;;;;23.58;100.00;101206.72;2080754;28;20199;-68
2023/07/05 01:51:44;;;;;;;6.67;5.33;;;;;;;23.58;100.00;101212.38;2073529;28;20644;-68
2023/07/05 01:52:54;;;;;;;7.83;5.40;;;;;;;23.58;100.00;101209.53;2080300;28;20214;-68
2023/07/05 01:54:00;;;;;;;7.30;5.50;;;;;;;23.59;100.00;101213.16;2080427;28;20599;-68
2023/07/05 01:55:27;;;;;;;7.50;5.37;;;;;;;23.59;100.00;101210.31;2079390;28;20185;-68
2023/07/05 01:56:39;;;;;;;6.47;5.50;;;;;;;23.61;100.00;101211.38;2075377;28;20564;-68
2023/07/05 01:57:45;;;;;;;6.40;5.80;;;;;;;23.56;100.00;101220.59;2077236;28;20185;-68
2023/07/05 01:58:50;;;;;;;6.50;5.37;;;;;;;23.34;100.00;101192.19;2080558;28;20193;-68
2023/07/05 02:00:07;;;;;;;8.60;5.70;;;;;;;23.57;100.00;101216.50;2080257;28;20201;-68
2023/07/05 02:01:09;;;;;;;8.90;6.10;;;;;;;23.58;100.00;101217.25;2080570;28;20691;-68
2023/07/05 02:02:12;;;;;;;7.40;5.97;;;;;;;23.54;100.00;101211.84;2080278;28;20631;-68
2023/07/05 02:03:16;;;;;;;7.70;6.53;;;;;;;23.32;100.00;101189.13;2080480;28;20672;-68
2023/07/05 02:04:17;;;;;;;9.47;5.73;;;;;;;23.04;100.00;101128.81;2080063;28;20272;-68
2023/07/05 02:05:19;;;;;;;8.27;5.93;;;;;;;23.58;100.00;101211.59;2079753;28;20187;-68
2023/07/05 02:06:21;;;;;;;9.47;5.83;;;;;;;23.58;100.00;101222.91;2081547;28;20185;-68
2023/07/05 02:07:30;;;;;;;10.77;6.17;;;;;;;23.45;100.00;101197.94;2089436;28;20479;-68
2023/07/05 02:08:36;;;;;;;8.07;5.57;;;;;;;23.35;100.00;101193.78;2088425;28;20275;-68
2023/07/05 02:09:37;;;;;;;7.43;5.67;;;;;;;23.50;100.00;101219.78;2082235;28;20172;-68
2023/07/05 02:10:38;;;;;;;9.70;6.03;;;;;;;23.49;100.00;101226.72;2082131;28;20192;-68
2023/07/05 02:11:38;;;;;;;11.83;6.17;;;;;;;23.51;100.00;101218.53;2081453;28;20189;-68
2023/07/05 02:12:38;;;;;;;8.33;5.87;;;;;;;23.47;100.00;101208.72;2081859;28;20275;-68
2023/07/05 02:13:39;;;;;;;7.83;5.50;;;;;;;23.51;100.00;101223.41;2081957;28;20275;-68
2023/07/05 02:14:39;;;;;;;6.70;5.67;;;;;;;23.48;100.00;101216.69;2077143;28;20189;-68
2023/07/05 02:15:40;;;;;;;7.80;6.00;;;;;;;23.47;100.00;101220.81;2075995;28;20682;-68
2023/07/05 02:16:40;;;;;;;8.37;5.80;;;;;;;23.47;100.00;101215.16;2081927;28;20577;-68
2023/07/05 02:17:41;;;;;;;6.47;5.63;;;;;;;23.46;100.00;101218.47;2082188;28;20720;-68
2023/07/05 02:18:41;;;;;;;7.87;5.90;;;;;;;23.38;100.00;101215.34;2082157;28;20815;-68
2023/07/05 02:19:42;;;;;;;7.07;5.90;;;;;;;23.38;100.00;101214.59;2081886;28;20632;-68
2023/07/05 02:20:42;;;;;;;9.50;5.80;;;;;;;23.36;100.00;101222.81;2081766;28;20207;-68
2023/07/05 02:21:43;;;;;;;15.23;6.60;;;;;;;23.28;100.00;101219.69;2081661;28;20647;-68
2023/07/05 02:22:43;;;;;;;17.53;7.20;;;;;;;23.28;100.00;101216.84;2081525;28;20224;-68
2023/07/05 02:23:44;;;;;;;17.10;6.73;;;;;;;23.28;100.00;101216.84;2081854;28;20177;-68
2023/07/05 02:24:44;;;;;;;13.67;6.70;;;;;;;23.30;100.00;101219.19;2080762;28;20205;-68
2023/07/05 02:25:44;;;;;;;10.80;6.17;;;;;;;23.30;100.00;101213.53;2081652;28;20177;-68
2023/07/05 02:26:45;;;;;;;7.80;5.67;;;;;;;23.02;100.00;101173.00;2081993;28;20228;-68
2023/07/05 02:27:45;;;;;;;8.47;5.43;;;;;;;23.29;100.00;101218.38;2081916;28;20215;-68
2023/07/05 02:28:46;;;;;;;8.60;5.87;;;;;;;23.29;100.00;101221.22;2081667;28;20191;-68
2023/07/05 02:29:47;;;;;;;8.20;6.43;;;;;;;23.30;100.00;101214.31;2081877;28;20285;-68
2023/07/05 02:30:47;;;;;;;7.47;6.23;;;;;;;23.08;100.00;101174.53;2081793;28;20275;-68
2023/07/05 02:31:48;;;;;;;7.23;6.50;;;;;;;23.24;100.00;101201.41;2081781;28;20331;-68
2023/07/05 02:32:48;;;;;;;9.67;6.57;;;;;;;23.06;100.00;101187.63;2081695;28;20185;-68
2023/07/05 02:33:48;;;;;;;7.70;6.80;;;;;;;23.28;100.00;101210.44;2081266;28;20176;-68
2023/07/05 02:34:50;;;;;;;10.50;6.63;;;;;;;23.28;100.00;101221.75;2072707;28;20185;-68
2023/07/05 02:35:50;;;;;;;13.93;6.97;;;;;;;23.07;100.00;101200.50;2080457;28;20200;-68
2023/07/05 02:36:51;;;;;;;8.17;6.07;;;;;;;23.28;100.00;101210.44;2081183;28;20248;-68
2023/07/05 02:37:51;;;;;;;8.03;6.10;;;;;;;23.30;100.00;101219.19;2081727;28;20240;-68
2023/07/05 02:38:53;;;;;;;9.97;6.93;;;;;;;23.29;100.00;101207.09;2081686;28;20191;-68
2023/07/05 02:39:53;;;;;;;7.70;6.33;;;;;;;22.61;100.00;101118.78;2081062;28;20193;-68
2023/07/05 02:40:54;;;;;;;13.23;6.57;;;;;;;23.10;100.00;101197.44;2081646;28;20276;-68
2023/07/05 02:41:54;;;;;;;8.33;6.83;;;;;;;23.18;100.00;101203.44;2081532;28;20185;-68
2023/07/05 02:42:56;;;;;;;6.93;6.20;;;;;;;23.20;100.00;101206.53;2081800;28;20180;-68
2023/07/05 02:43:57;;;;;;;8.17;6.80;;;;;;;23.00;100.00;101178.34;2073612;28;20638;-68
2023/07/05 02:44:57;;;;;;;9.53;6.97;;;;;;;23.03;100.00;101192.25;2079548;28;20212;-68
2023/07/05 02:45:58;;;;;;;9.27;6.63;;;;;;;23.17;100.00;101207.50;2081754;28;20208;-68
2023/07/05 02:46:58;;;;;;;8.50;6.70;;;;;;;23.06;100.00;101199.72;2081624;28;20185;-68
2023/07/05 02:47:58;;;;;;;8.80;6.90;;;;;;;22.74;100.00;101157.91;2081702;28;20192;-68
2023/07/05 02:48:59;;;;;;;7.57;6.77;;;;;;;23.07;100.00;101197.66;2081469;28;20223;-68
2023/07/05 02:49:59;;;;;;;8.97;6.63;;;;;;;23.13;100.00;101206.97;2081551;28;20177;-68
2023/07/05 02:51:00;;;;;;;7.87;6.10;;;;;;;22.93;100.00;101184.50;2081357;28;20184;-68
2023/07/05 02:52:00;;;;;;;10.50;6.90;;;;;;;23.14;100.00;101211.34;2081793;28;20178;-68
2023/07/05 02:53:00;;;;;;;8.73;6.80;;;;;;;23.09;100.00;101210.00;2081563;28;20180;-68
2023/07/05 02:54:01;;;;;;;8.43;6.93;;;;;;;23.11;100.00;101206.69;2081395;28;20209;-68
2023/07/05 02:55:01;;;;;;;9.67;6.70;;;;;;;23.10;100.00;101214.41;2080529;28;20219;-68
2023/07/05 02:56:04;;;;;;;13.07;7.23;;;;;;;23.10;100.00;101213.63;2081654;28;20196;-68
2023/07/05 02:57:04;;;;;;;9.73;6.93;;;;;;;23.13;100.00;101213.38;2081325;28;20196;-68
2023/07/05 02:58:05;;;;;;;8.13;6.87;;;;;;;23.11;100.00;101213.13;2081620;28;20319;-68
2023/07/05 02:59:05;;;;;;;12.03;7.00;;;;;;;23.16;100.00;101220.09;2081659;28;20239;-68
2023/07/05 03:00:06;;;;;;;7.30;6.37;;;;;;;23.12;100.00;101214.66;2081813;28;20318;-68
2023/07/05 03:01:07;;;;;;;9.57;6.63;;;;;;;23.23;100.00;101220.41;2081523;28;20562;-68
2023/07/05 03:02:10;;;;;;;10.00;7.30;;;;;;;23.21;100.00;101214.50;2074637;28;20177;-68
2023/07/05 03:03:11;;;;;;;9.37;6.83;;;;;;;22.83;100.00;101149.22;2079427;28;20209;-68
2023/07/05 03:04:12;;;;;;;7.93;6.37;;;;;;;23.29;100.00;101223.28;2076479;28;20181;-68
2023/07/05 03:05:13;;;;;;;7.70;6.50;;;;;;;23.29;100.00;101229.69;2076255;28;20192;-68
2023/07/05 03:06:13;;;;;;;9.80;6.70;;;;;;;23.31;100.00;101221.50;2078654;28;20257;-68
2023/07/05 03:07:14;;;;;;;9.37;6.70;;;;;;;22.98;100.00;101170.38;2074990;28;20555;-68
2023/07/05 03:08:14;;;;;;;9.23;7.27;;;;;;;23.35;100.00;101221.25;2080394;28;20212;-68
2023/07/05 03:09:15;;;;;;;7.90;6.80;;;;;;;23.33;100.00;101216.09;2073473;28;20182;-68
2023/07/05 03:10:15;;;;;;;10.33;7.10;;;;;;;23.38;100.00;101218.19;2080975;28;20279;-68
2023/07/05 03:11:16;;;;;;;8.13;6.33;;;;;;;22.74;100.00;101124.00;2081437;28;20235;-68
2023/07/05 03:12:17;;;;;;;8.13;6.50;;;;;;;23.41;100.00;101222.84;2081426;28;20197;-68
2023/07/05 03:13:18;;;;;;;11.30;6.90;;;;;;;23.46;100.00;101230.59;2081463;28;20225;-68
2023/07/05 03:14:19;;;;;;;9.43;7.23;;;;;;;23.48;100.00;101227.22;2080646;28;20189;-68
2023/07/05 03:15:19;;;;;;;9.97;7.10;;;;;;;23.02;100.00;101156.78;2074856;28;20259;-68
2023/07/05 03:16:20;;;;;;;8.27;6.87;;;;;;;23.47;100.00;101222.84;2081388;28;20177;-68
2023/07/05 03:17:20;;;;;;;9.77;7.37;;;;;;;23.49;100.00;101223.91;2081129;28;20177;-68
2023/07/05 03:18:21;;;;;;;9.37;7.77;;;;;;;23.50;100.00;101222.63;2080945;28;20191;-68
2023/07/05 03:19:21;;;;;;;10.30;7.17;;;;;;;23.50;100.00;101213.38;2081566;28;20193;-68
2023/07/05 03:20:22;;;;;;;9.27;7.10;;;;;;;23.41;100.00;101194.56;2081375;28;20206;-68
2023/07/05 03:21:22;;;;;;;12.73;7.67;;;;;;;23.52;100.00;101213.63;2081410;28;20221;-68
2023/07/05 03:22:23;;;;;;;8.07;6.20;;;;;;;23.49;100.00;101209.75;2081192;28;20184;-68
2023/07/05 03:23:24;;;;;;;7.67;6.17;;;;;;;23.54;100.00;101199.75;2081012;28;20185;-68
2023/07/05 03:24:24;;;;;;;11.03;6.70;;;;;;;23.44;100.00;101202.00;2080619;28;20223;-68
2023/07/05 03:25:24;;;;;;;8.13;6.87;;;;;;;23.54;100.00;101211.84;2080089;28;20181;-68
2023/07/05 03:26:25;;;;;;;10.13;7.10;;;;;;;23.05;100.00;101135.22;2080845;28;20216;-68
2023/07/05 03:27:28;;;;;;;11.23;6.43;;;;;;;23.60;100.00;101211.88;2080577;28;20196;-68
2023/07/05 03:28:32;;;;;;;8.40;6.67;;;;;;;23.67;100.00;101214.19;2081356;28;20196;-68
2023/07/05 03:29:32;;;;;;;7.17;6.27;;;;;;;23.72;100.00;101211.41;2081528;28;20196;-68
2023/07/05 03:30:34;;;;;;;7.87;6.60;;;;;;;23.72;100.00;101205.75;2081303;28;20189;-68
2023/07/05 03:31:35;;;;;;;7.60;6.03;;;;;;;23.68;100.00;101210.88;2081399;28;20185;-68
2023/07/05 03:32:36;;;;;;;7.20;6.50;;;;;;;23.07;100.00;101127.00;2081081;28;24728;-68
2023/07/05 03:33:37;;;;;;;7.83;6.70;;;;;;;23.56;100.00;101208.50;2081228;28;20180;-68
2023/07/05 03:34:38;;;;;;;7.73;6.37;;;;;;;23.64;100.00;101215.25;2080425;28;20247;-68
2023/07/05 03:35:38;;;;;;;9.93;7.47;;;;;;;23.66;100.00;101221.16;2081179;28;20188;-68
2023/07/05 03:36:38;;;;;;;9.80;7.43;;;;;;;23.66;100.00;101216.28;2081142;28;20238;-68
2023/07/05 03:37:40;;;;;;;12.13;6.93;;;;;;;23.62;100.00;101210.06;2080700;28;20192;-68
2023/07/05 03:38:41;;;;;;;12.90;7.80;;;;;;;23.72;100.00;101221.94;2081141;28;20689;-68
2023/07/05 03:39:42;;;;;;;13.23;7.03;;;;;;;23.74;100.00;101217.31;2081072;28;20568;-68
2023/07/05 03:40:42;;;;;;;11.27;6.77;;;;;;;23.77;100.00;101218.34;2078266;28;20629;-68
2023/07/05 03:41:42;;;;;;;11.00;6.87;;;;;;;23.77;100.00;101207.03;2081082;28;20570;-68
2023/07/05 03:42:43;;;;;;;11.70;6.93;;;;;;;23.75;100.00;101215.28;2081099;28;20567;-68
2023/07/05 03:43:46;;;;;;;13.80;7.47;;;;;;;23.74;100.00;101210.91;2080712;28;20313;-68
2023/07/05 03:44:46;;;;;;;12.37;7.13;;;;;;;23.77;100.00;101212.69;2079298;28;20240;-68
2023/07/05 03:45:47;;;;;;;12.73;6.87;;;;;;;23.78;100.00;101219.91;2079496;28;20204;-68
2023/07/05 03:46:50;;;;;;;10.40;7.10;;;;;;;23.77;100.00;101213.47;2081040;28;20247;-68
2023/07/05 03:47:50;;;;;;;11.87;7.33;;;;;;;23.79;100.00;101215.81;2081243;28;21013;-68
2023/07/05 03:48:51;;;;;;;18.43;7.53;;;;;;;23.81;100.00;101218.88;2081157;28;20612;-68
2023/07/05 03:49:51;;;;;;;15.23;7.60;;;;;;;23.84;100.00;101215.81;2081282;28;20624;-68
2023/07/05 03:50:56;;;;;;;13.37;8.53;;;;;;;23.85;100.00;101214.53;2080990;28;20211;-68
2023/07/05 03:51:56;;;;;;;9.83;8.20;;;;;;;23.87;100.00;101206.31;2080614;28;20177;-68
2023/07/05 03:52:57;;;;;;;10.57;7.57;;;;;;;23.88;100.00;101210.69;2081247;28;20184;-68
2023/07/05 03:53:58;;;;;;;13.10;8.17;;;;;;;23.93;100.00;101214.84;2081124;28;20193;-68
2023/07/05 03:54:59;;;;;;;10.30;7.20;;;;;;;23.98;100.00;101220.53;2080080;28;20216;-68
2023/07/05 03:56:01;;;;;;;11.47;8.03;;;;;;;24.01;100.00;101213.81;2081307;28;20203;-68
2023/07/05 03:57:02;;;;;;;10.40;8.07;;;;;;;24.01;100.00;101213.81;2080972;28;20542;-68
2023/07/05 03:58:02;;;;;;;10.23;7.47;;;;;;;24.05;100.00;101216.44;2081296;28;20215;-68
2023/07/05 03:59:03;;;;;;;11.13;8.30;;;;;;;24.03;100.00;101208.44;2080951;28;20549;-68
2023/07/05 04:00:04;;;;;;;13.83;7.40;;;;;;;24.10;100.00;101210.00;2081027;28;20197;-68
2023/07/05 04:01:14;;;;;;;9.43;7.77;;;;;;;24.13;100.00;101221.06;2080813;28;20802;-68
2023/07/05 04:02:14;;;;;;;10.67;7.10;;;;;;;24.14;100.00;101210.50;2088208;28;20183;-68
2023/07/05 04:03:15;;;;;;;10.40;7.03;;;;;;;24.16;100.00;101214.38;2088912;28;20189;-68
2023/07/05 04:04:15;;;;;;;11.37;7.30;;;;;;;24.16;100.00;101214.38;2080746;28;20670;-68
2023/07/05 04:05:16;;;;;;;9.90;6.90;;;;;;;24.20;100.00;101212.06;2080137;28;20214;-68
2023/07/05 04:06:17;;;;;;;10.63;7.00;;;;;;;24.21;100.00;101213.59;2080866;28;20196;-68
2023/07/05 04:07:18;;;;;;;7.90;7.10;;;;;;;24.27;100.00;101222.13;2081029;28;20189;-68
2023/07/05 04:08:18;;;;;;;10.37;7.23;;;;;;;24.29;100.00;101216.72;2080871;28;20741;-68
2023/07/05 04:09:19;;;;;;;11.03;7.00;;;;;;;24.34;100.00;101216.72;2080907;28;20634;-68
2023/07/05 04:10:19;;;;;;;8.90;7.60;;;;;;;24.35;100.00;101221.09;2080976;28;20598;-68
2023/07/05 04:11:20;;;;;;;10.33;7.20;;;;;;;24.38;100.00;101216.47;2081300;28;20205;-68
2023/07/05 04:12:20;;;;;;;10.90;8.00;;;;;;;24.03;100.00;101165.19;2080894;28;20374;-68
2023/07/05 04:13:21;;;;;;;10.57;7.47;;;;;;;24.42;100.00;101219.84;2081229;28;20189;-68
2023/07/05 04:14:21;;;;;;;9.20;7.30;;;;;;;24.45;100.00;101218.78;2080113;28;20201;-68
2023/07/05 04:15:22;;;;;;;8.73;7.40;;;;;;;24.43;100.00;101219.31;2080383;28;20573;-68
2023/07/05 04:16:24;;;;;;;8.63;7.00;;;;;;;24.46;100.00;101226.78;2080960;28;20193;-68
2023/07/05 04:17:28;;;;;;;9.63;7.17;;;;;;;24.45;100.00;101216.72;2081107;28;20673;-68
2023/07/05 04:18:31;;;;;;;9.33;6.90;;;;;;;24.52;100.00;101227.53;2080731;28;20181;-68
2023/07/05 04:19:32;;;;;;;9.60;7.20;;;;;;;24.55;100.00;101218.03;2080765;28;20208;-68
2023/07/05 04:20:32;;;;;;;13.80;7.50;;;;;;;24.59;100.00;101217.81;2080694;28;20177;-68
2023/07/05 04:21:32;;;;;;;8.90;7.20;;;;;;;24.60;100.00;101219.34;2072809;28;20308;-68
2023/07/05 04:22:35;;;;;;;8.53;7.40;;;;;;;24.64;100.00;101222.69;2087046;28;20696;-68
2023/07/05 04:23:37;;;;;;;10.57;7.03;;;;;;;24.59;100.00;101210.09;2088300;28;20279;-68
2023/07/05 04:24:37;;;;;;;9.90;6.80;;;;;;;24.72;100.00;101223.75;2079848;28;20627;-68
2023/07/05 04:25:37;;;;;;;10.33;6.90;;;;;;;24.77;100.00;101235.06;2080027;28;20193;-68
2023/07/05 04:26:38;;;;;;;11.30;7.50;;;;;;;24.83;100.00;101235.81;2080227;28;20197;-68
2023/07/05 04:27:38;;;;;;;10.50;7.30;;;;;;;24.88;100.00;101232.22;2080835;28;20251;-68
2023/07/05 04:28:40;;;;;;;10.20;6.90;;;;;;;24.83;100.00;101215.22;2080648;28;20716;-68
2023/07/05 04:29:41;;;;;;;9.57;7.00;;;;;;;24.95;100.00;101231.72;2081040;28;20177;-68
2023/07/05 04:30:41;;;;;;;11.57;7.00;;;;;;;24.99;100.00;101231.44;2078838;28;20885;-68
2023/07/05 04:31:42;;;;;;;9.73;7.97;;;;;;;24.97;100.00;101231.94;2078473;28;20664;-67
2023/07/05 04:32:42;;;;;;;9.90;7.03;;;;;;;25.13;100.00;101225.47;2079119;28;20207;-60
2023/07/05 04:33:43;;;;;;;7.23;6.53;;;;;;;25.26;100.00;101227.81;2078376;28;20608;-60
2023/07/05 04:34:44;;;;;;;5.43;4.43;;;;;;;25.31;100.00;101213.63;2078826;28;20196;-60
2023/07/05 04:35:52;;;;;;;8.83;5.40;;;;;;;25.67;100.00;101231.53;2079883;28;20207;-61
2023/07/05 04:36:53;;;;;;;10.47;6.30;;;;;;;25.79;100.00;101233.06;2079566;28;20238;-61
2023/07/05 04:37:53;;;;;;;6.30;4.70;;;;;;;26.11;100.00;101232.09;2079607;28;20302;-61
2023/07/05 04:38:56;;;;;;;10.07;4.80;;;;;;;25.80;100.00;101152.25;2079438;28;20420;-61
2023/07/05 04:39:56;;;;;;;6.90;4.50;;;;;;;26.59;100.00;101237.22;2079839;28;20262;-61
2023/07/05 04:40:58;;;;;;;8.50;6.50;;;;;;;26.61;100.00;101228.97;2079227;28;20484;-61
2023/07/05 04:41:59;;;;;;;9.33;6.37;;;;;;;26.57;100.00;101229.22;2077908;28;20225;-61
2023/07/05 04:42:59;;;;;;;12.97;7.57;;;;;;;26.52;100.00;101226.41;2077075;28;20204;-61
2023/07/05 04:44:00;;;;;;;11.37;6.80;;;;;;;26.43;100.00;101219.00;2078747;28;20224;-61
2023/07/05 04:45:01;;;;;;;9.73;6.80;;;;;;;26.55;100.00;101223.31;2070477;28;20364;-60
2023/07/05 04:46:02;;;;;;;11.73;6.30;;;;;;;26.59;100.00;101225.88;2073763;28;20238;-61
2023/07/05 04:47:02;;;;;;;9.97;6.80;;;;;;;26.64;100.00;101227.91;2076101;28;20674;-61
2023/07/05 04:48:02;;;;;;;8.47;6.20;;;;;;;26.78;100.00;101226.75;2075987;28;20594;-61
2023/07/05 04:49:03;;;;;;;11.00;6.57;;;;;;;26.83;100.00;101226.72;2073720;28;20205;-63
2023/07/05 04:50:04;;;;;;;9.67;7.13;;;;;;;26.81;100.00;101234.97;2073414;28;20266;-63